Joliet, Illinois
Current Conditions -  °F | °C
As of 9:15 PM on Tuesday 25 Nov 2014 (Local Time) from KJOT Reporting Station
Broken Clouds Broken Clouds  
Wind Chill: 20°   Ceiling: 1200
Heat Index: 20°   Visibility: 7mi
Dew Point: 17°   Wind: 0mph
Humidity: 88%   Direction: NA
Pressure: 30.21"   Gusts: NA
Location:  41.52°N, 88.08°W
Report Text: KJOT 260315Z AUTO 00000KT 7SM BKN012 M07/M09 A3021 RMK AO2 T10691086
Loading
Personal Weather Stations






























Interactive Weather Map New forecast layout! Learn more

10-Day Weather Forecast

Advertisements
Track Severe Weather on mobile